createdAt,value
2023-03-06T00:01:03.529Z,17.60
2023-03-06T00:03:30.745Z,20.40
2023-03-06T00:05:59.149Z,16.85
2023-03-06T00:08:29.023Z,16.08
2023-03-06T00:10:56.798Z,17.17
2023-03-06T00:13:24.847Z,16.05
2023-03-06T00:15:52.507Z,16.65
2023-03-06T00:18:19.862Z,16.50
2023-03-06T00:20:47.437Z,16.35
2023-03-06T00:23:15.125Z,16.63
2023-03-06T00:25:43.946Z,16.92
2023-03-06T00:28:12.585Z,16.88
2023-03-06T00:30:39.811Z,15.77
2023-03-06T00:33:09.341Z,16.50
2023-03-06T00:35:39.286Z,16.83
2023-03-06T00:38:06.911Z,16.83
2023-03-06T00:40:34.347Z,17.90
2023-03-06T00:43:01.517Z,18.13
2023-03-06T00:45:28.959Z,18.98
2023-03-06T00:47:56.240Z,20.55
2023-03-06T00:50:24.199Z,19.95
2023-03-06T00:52:51.766Z,18.77
2023-03-06T00:55:19.295Z,18.88
2023-03-06T00:57:46.505Z,18.35
2023-03-06T01:00:15.429Z,21.30
2023-03-06T01:02:42.966Z,24.20
2023-03-06T01:05:13.179Z,19.58
2023-03-06T01:07:40.668Z,19.58
2023-03-06T01:10:08.756Z,17.08
2023-03-06T01:12:36.141Z,17.90
2023-03-06T01:15:04.425Z,18.10
2023-03-06T01:17:32.092Z,17.90
2023-03-06T01:19:59.443Z,18.27
2023-03-06T01:22:26.904Z,19.27
2023-03-06T01:24:54.155Z,18.27
2023-03-06T01:27:21.399Z,17.65
2023-03-06T01:29:48.660Z,18.58
2023-03-06T01:32:16.026Z,20.25
2023-03-06T01:34:43.347Z,22.65
2023-03-06T01:37:10.813Z,20.33
2023-03-06T01:39:38.096Z,19.08
2023-03-06T01:42:05.907Z,21.08
2023-03-06T01:44:35.676Z,21.75
2023-03-06T01:47:03.010Z,21.52
2023-03-06T01:49:37.426Z,20.55
2023-03-06T01:52:12.036Z,20.70
2023-03-06T01:54:55.720Z,21.38
2023-03-06T01:57:40.311Z,20.25
2023-03-06T02:00:17.303Z,19.85
2023-03-06T02:02:50.496Z,20.92
2023-03-06T02:05:18.295Z,22.45
2023-03-06T02:07:46.500Z,21.67
2023-03-06T02:10:16.954Z,21.52
2023-03-06T02:12:44.984Z,21.63
2023-03-06T02:15:14.339Z,21.00
2023-03-06T02:17:44.696Z,22.17
2023-03-06T02:20:34.105Z,22.13
2023-03-06T02:23:33.654Z,21.38
2023-03-06T02:26:02.586Z,22.02
2023-03-06T02:28:30.271Z,21.40
2023-03-06T02:30:57.943Z,21.95
2023-03-06T02:33:28.356Z,22.70
2023-03-06T02:35:58.664Z,23.20
2023-03-06T02:38:32.113Z,20.85
2023-03-06T02:41:00.042Z,20.88
2023-03-06T02:43:31.734Z,21.58
2023-03-06T02:45:59.391Z,21.40
2023-03-06T02:48:26.729Z,21.48
2023-03-06T02:50:53.991Z,22.17
2023-03-06T02:53:21.828Z,22.20
2023-03-06T02:55:49.946Z,21.52
2023-03-06T02:58:20.010Z,22.13
2023-03-06T03:00:48.991Z,23.52
2023-03-06T03:03:16.561Z,20.73
2023-03-06T03:05:43.926Z,21.05
2023-03-06T03:08:11.398Z,21.50
2023-03-06T03:10:38.807Z,20.95
2023-03-06T03:13:06.062Z,20.05
2023-03-06T03:15:33.423Z,19.27
2023-03-06T03:18:00.938Z,19.13
2023-03-06T03:20:28.258Z,19.08
2023-03-06T03:22:56.572Z,17.73
2023-03-06T03:25:25.906Z,18.75
2023-03-06T03:27:53.424Z,18.33
2023-03-06T03:30:20.929Z,19.80
2023-03-06T03:32:48.868Z,18.35
2023-03-06T03:35:16.114Z,17.92
2023-03-06T03:37:43.421Z,18.23
2023-03-06T03:40:11.536Z,17.73
2023-03-06T03:42:41.938Z,18.30
2023-03-06T03:45:09.543Z,18.33
2023-03-06T03:47:37.075Z,19.30
2023-03-06T03:50:05.177Z,18.50
2023-03-06T03:52:32.548Z,17.83
2023-03-06T03:54:59.909Z,18.73
2023-03-06T03:57:27.312Z,17.83
2023-03-06T03:59:54.782Z,18.08
2023-03-06T04:02:22.424Z,18.13
2023-03-06T04:04:49.997Z,17.33
2023-03-06T04:07:17.438Z,19.23
2023-03-06T04:09:44.712Z,17.75
2023-03-06T04:12:12.027Z,17.42
2023-03-06T04:14:39.642Z,17.88
2023-03-06T04:17:06.954Z,18.67
2023-03-06T04:19:34.176Z,18.15
2023-03-06T04:22:02.514Z,18.55
2023-03-06T04:24:29.790Z,18.55
2023-03-06T04:26:57.235Z,19.00
2023-03-06T04:29:24.846Z,17.15
2023-03-06T04:31:52.195Z,17.88
2023-03-06T04:34:19.497Z,17.60
2023-03-06T04:36:46.809Z,19.40
2023-03-06T04:39:14.883Z,18.25
2023-03-06T04:41:42.956Z,17.90
2023-03-06T04:44:10.414Z,18.75
2023-03-06T04:46:37.729Z,18.48
2023-03-06T04:49:05.093Z,18.55
2023-03-06T04:51:32.469Z,18.00
2023-03-06T04:54:00.049Z,18.15
2023-03-06T04:56:27.328Z,18.65
2023-03-06T04:58:54.598Z,17.63
2023-03-06T05:01:21.913Z,17.38
2023-03-06T05:03:50.196Z,18.23
2023-03-06T05:06:17.434Z,19.02
2023-03-06T05:08:44.813Z,18.05
2023-03-06T05:11:14.721Z,18.75
2023-03-06T05:13:42.081Z,19.13
2023-03-06T05:16:09.720Z,17.50
2023-03-06T05:18:37.437Z,18.05
2023-03-06T05:21:06.079Z,17.90
2023-03-06T05:23:35.679Z,17.10
2023-03-06T05:26:08.029Z,19.30
2023-03-06T05:28:35.659Z,17.13
2023-03-06T05:31:03.580Z,17.80
2023-03-06T05:33:33.141Z,17.02
2023-03-06T05:36:01.558Z,17.50
2023-03-06T05:38:29.262Z,17.77
2023-03-06T05:40:56.476Z,18.20
2023-03-06T05:43:23.946Z,17.08
2023-03-06T05:45:53.146Z,20.75
2023-03-06T05:48:21.728Z,23.92
2023-03-06T05:50:55.938Z,23.90
2023-03-06T05:53:23.124Z,21.33
2023-03-06T05:56:06.223Z,20.77
2023-03-06T05:58:34.252Z,19.88
2023-03-06T06:01:07.780Z,18.95
2023-03-06T06:03:35.042Z,18.40
2023-03-06T06:06:05.352Z,27.77
2023-03-06T06:08:35.253Z,71.88
2023-03-06T06:11:04.264Z,40.65
2023-03-06T06:13:32.097Z,24.75
2023-03-06T06:15:59.330Z,21.88
2023-03-06T06:18:26.690Z,20.58
2023-03-06T06:20:55.930Z,19.85
2023-03-06T06:23:23.439Z,20.55
2023-03-06T06:25:51.751Z,20.33
2023-03-06T06:28:19.220Z,20.38
2023-03-06T06:30:46.483Z,20.23
2023-03-06T06:33:14.073Z,20.70
2023-03-06T06:35:41.499Z,20.33
2023-03-06T06:38:08.755Z,21.10
2023-03-06T06:40:36.287Z,22.48
2023-03-06T06:43:03.623Z,19.55
2023-03-06T06:45:30.883Z,21.80
2023-03-06T06:47:58.259Z,21.67
2023-03-06T06:50:30.223Z,22.45
2023-03-06T06:53:03.982Z,21.38
2023-03-06T06:55:31.571Z,40.53
2023-03-06T06:58:00.124Z,33.67
2023-03-06T07:00:28.610Z,23.77
2023-03-06T07:02:55.858Z,22.15
2023-03-06T07:05:23.010Z,23.17
2023-03-06T07:07:51.561Z,20.85
2023-03-06T07:10:20.740Z,20.40
2023-03-06T07:12:58.183Z,20.25
2023-03-06T07:15:27.320Z,19.77
2023-03-06T07:17:54.593Z,19.40
2023-03-06T07:20:22.357Z,20.30
2023-03-06T07:22:51.743Z,21.13
2023-03-06T07:25:21.577Z,19.65
2023-03-06T07:27:53.857Z,21.63
2023-03-06T07:30:23.408Z,23.25
2023-03-06T07:32:54.112Z,22.15
2023-03-06T07:35:21.456Z,21.33
2023-03-06T07:37:48.707Z,19.67
2023-03-06T07:40:15.942Z,22.00
2023-03-06T07:42:43.236Z,19.42
2023-03-06T07:45:12.478Z,21.08
2023-03-06T07:47:40.301Z,20.52
2023-03-06T07:50:08.029Z,21.88
2023-03-06T07:52:35.204Z,20.95
2023-03-06T07:55:02.598Z,18.05
2023-03-06T07:57:29.729Z,20.23
2023-03-06T07:59:56.867Z,20.17
2023-03-06T08:02:24.587Z,19.15
2023-03-06T08:04:55.979Z,20.60
2023-03-06T08:07:23.627Z,20.40
2023-03-06T08:09:51.020Z,20.17
2023-03-06T08:12:18.205Z,20.58
2023-03-06T08:14:45.446Z,19.92
2023-03-06T08:17:12.668Z,21.23
2023-03-06T08:19:39.969Z,21.02
2023-03-06T08:22:07.535Z,20.48
2023-03-06T08:24:35.251Z,20.17
2023-03-06T08:27:02.822Z,21.15
2023-03-06T08:29:31.536Z,20.30
2023-03-06T08:31:59.474Z,20.75
2023-03-06T08:34:27.060Z,19.80
2023-03-06T08:36:54.184Z,21.60
2023-03-06T08:39:21.508Z,20.27
2023-03-06T08:41:48.659Z,20.80
2023-03-06T08:44:16.027Z,19.45
2023-03-06T08:49:27.888Z,20.45
2023-03-06T08:51:55.127Z,21.05
2023-03-06T08:54:22.351Z,19.70
2023-03-06T08:56:49.668Z,21.10
2023-03-06T08:59:16.954Z,18.95
2023-03-06T09:01:45.344Z,21.92
2023-03-06T09:04:12.601Z,22.33
2023-03-06T09:06:46.900Z,19.38
2023-03-06T09:09:14.313Z,19.63
2023-03-06T09:11:41.491Z,18.63
2023-03-06T09:14:08.651Z,19.00
2023-03-06T09:16:38.191Z,19.70
2023-03-06T09:19:05.545Z,20.13
2023-03-06T09:21:32.789Z,20.42
2023-03-06T09:24:00.133Z,19.25
2023-03-06T09:26:39.603Z,17.55
2023-03-06T09:29:12.686Z,16.05
2023-03-06T09:31:42.136Z,15.63
2023-03-06T09:34:09.385Z,16.05
2023-03-06T09:36:53.361Z,17.00
2023-03-06T09:39:26.425Z,14.13
2023-03-06T09:41:54.072Z,14.73
2023-03-06T09:44:41.765Z,14.68
2023-03-06T09:47:18.756Z,14.82
2023-03-06T09:50:35.842Z,14.70
2023-03-06T09:53:33.086Z,15.00
2023-03-06T09:56:16.363Z,17.23
2023-03-06T09:58:49.112Z,14.80
2023-03-06T10:01:35.201Z,15.18
2023-03-06T10:04:24.895Z,15.00
2023-03-06T10:06:59.829Z,14.85
2023-03-06T10:09:42.261Z,14.43
2023-03-06T10:12:25.778Z,13.82
2023-03-06T10:15:02.878Z,14.18
2023-03-06T10:17:41.418Z,13.73
2023-03-06T10:20:47.371Z,13.82
2023-03-06T10:23:35.582Z,12.68
2023-03-06T10:26:07.241Z,12.50
2023-03-06T10:28:43.950Z,12.73
2023-03-06T10:31:23.701Z,13.35
2023-03-06T10:33:55.595Z,12.30
2023-03-06T10:36:28.402Z,14.27
2023-03-06T10:38:58.122Z,15.73
2023-03-06T10:41:36.311Z,15.07
2023-03-06T10:44:03.521Z,14.55
2023-03-06T10:46:36.853Z,14.43
2023-03-06T10:49:30.137Z,14.35
2023-03-06T10:52:02.348Z,14.65
2023-03-06T10:54:35.784Z,15.50
2023-03-06T10:57:26.317Z,15.35
2023-03-06T10:59:59.223Z,14.07
2023-03-06T11:02:41.064Z,14.18
2023-03-06T11:05:20.658Z,14.52
2023-03-06T11:07:56.787Z,15.80
2023-03-06T11:10:24.600Z,15.68
2023-03-06T11:13:07.653Z,16.05
2023-03-06T11:15:35.259Z,16.85
2023-03-06T11:18:23.685Z,16.83
2023-03-06T11:20:54.421Z,15.98
2023-03-06T11:23:27.256Z,15.18
2023-03-06T11:26:23.950Z,14.38
2023-03-06T11:29:19.357Z,17.80
2023-03-06T11:31:50.220Z,15.68
2023-03-06T11:34:30.673Z,17.17
2023-03-06T11:37:04.209Z,15.13
2023-03-06T11:39:44.901Z,15.57
2023-03-06T11:45:10.223Z,14.77
2023-03-06T11:47:49.499Z,15.65
2023-03-06T11:50:24.447Z,17.67
2023-03-06T11:53:28.832Z,15.60
2023-03-06T11:56:25.664Z,15.05
2023-03-06T11:58:56.823Z,14.95
2023-03-06T12:01:43.495Z,15.85
2023-03-06T12:04:16.463Z,16.42
2023-03-06T12:06:49.886Z,15.25
2023-03-06T12:09:37.555Z,15.68
2023-03-06T12:12:34.501Z,15.68
2023-03-06T12:15:07.733Z,16.45
2023-03-06T12:17:51.085Z,14.10
2023-03-06T12:20:40.363Z,15.07
2023-03-06T12:23:39.180Z,21.13
2023-03-06T12:26:28.189Z,14.73
2023-03-06T12:29:28.675Z,15.98
2023-03-06T12:32:15.120Z,13.38
2023-03-06T12:35:28.636Z,14.35
2023-03-06T12:38:30.174Z,14.82
2023-03-06T12:41:32.363Z,14.20
2023-03-06T12:44:27.247Z,12.63
2023-03-06T12:47:04.811Z,11.70
2023-03-06T12:49:38.780Z,10.65
2023-03-06T12:52:08.896Z,9.05
2023-03-06T12:54:40.702Z,7.82
2023-03-06T12:57:11.594Z,8.63
2023-03-06T12:59:42.646Z,9.45
2023-03-06T13:02:43.879Z,9.90
2023-03-06T13:05:33.299Z,9.70
2023-03-06T13:08:55.744Z,9.68
2023-03-06T13:11:43.839Z,9.32
2023-03-06T13:14:37.567Z,9.18
2023-03-06T13:17:36.837Z,11.65
2023-03-06T13:20:25.237Z,11.93
2023-03-06T13:22:52.625Z,11.75
2023-03-06T13:25:19.934Z,11.80
2023-03-06T13:27:53.338Z,11.88
2023-03-06T13:30:37.182Z,10.88
2023-03-06T13:33:22.799Z,10.23
2023-03-06T13:36:19.387Z,10.88
2023-03-06T13:38:49.557Z,9.70
2023-03-06T13:41:22.872Z,9.48
2023-03-06T13:43:58.128Z,9.05
2023-03-06T13:46:34.955Z,9.82
2023-03-06T13:49:08.336Z,10.38
2023-03-06T13:51:37.976Z,9.95
2023-03-06T13:54:23.077Z,9.90
2023-03-06T13:56:59.295Z,9.00
2023-03-06T13:59:44.939Z,9.25
2023-03-06T14:02:39.380Z,10.10
2023-03-06T14:05:15.697Z,9.43
2023-03-06T14:08:21.560Z,10.73
2023-03-06T14:10:59.628Z,9.88
2023-03-06T14:13:45.488Z,10.13
2023-03-06T14:16:24.040Z,9.13
2023-03-06T14:18:54.015Z,9.40
2023-03-06T14:21:45.698Z,9.23
2023-03-06T14:24:18.165Z,10.23
2023-03-06T14:26:53.573Z,9.18
2023-03-06T14:29:24.046Z,9.30
2023-03-06T14:34:31.225Z,10.10
2023-03-06T14:37:05.911Z,10.85
2023-03-06T14:39:52.228Z,10.20
2023-03-06T14:42:24.094Z,9.57
2023-03-06T14:45:08.651Z,9.93
2023-03-06T14:47:37.585Z,9.05
2023-03-06T14:50:28.684Z,9.82
2023-03-06T14:52:58.774Z,10.10
2023-03-06T14:55:28.640Z,10.48
2023-03-06T14:58:05.169Z,10.63
2023-03-06T15:00:41.201Z,9.82
2023-03-06T15:03:18.568Z,14.85
2023-03-06T15:05:47.479Z,12.63
2023-03-06T15:08:24.276Z,10.13
2023-03-06T15:11:00.161Z,9.93
2023-03-06T15:13:30.467Z,12.52
2023-03-06T15:16:14.738Z,12.73
2023-03-06T15:19:03.097Z,14.23
2023-03-06T15:21:36.448Z,12.50
2023-03-06T15:24:36.634Z,14.50
2023-03-06T15:27:07.076Z,13.95
2023-03-06T15:29:37.869Z,14.60
2023-03-06T15:32:34.745Z,12.82
2023-03-06T15:35:37.350Z,11.32
2023-03-06T15:38:29.939Z,12.27
2023-03-06T15:41:00.569Z,13.15
2023-03-06T15:43:32.519Z,13.63
2023-03-06T15:46:02.262Z,15.52
2023-03-06T15:48:35.111Z,15.77
2023-03-06T15:51:03.455Z,15.82
2023-03-06T15:53:35.546Z,16.15
2023-03-06T15:56:07.787Z,15.23
2023-03-06T15:58:36.256Z,16.08
2023-03-06T16:01:08.313Z,15.68
2023-03-06T16:03:35.629Z,16.55
2023-03-06T16:06:05.608Z,17.77
2023-03-06T16:08:32.854Z,16.50
2023-03-06T16:11:06.895Z,17.92
2023-03-06T16:13:47.018Z,16.17
2023-03-06T16:16:24.702Z,15.15
2023-03-06T16:18:53.239Z,15.77
2023-03-06T16:21:20.533Z,15.07
2023-03-06T16:23:47.706Z,28.40
2023-03-06T16:26:36.885Z,28.88
2023-03-06T16:29:04.208Z,20.92
2023-03-06T16:31:31.505Z,17.65
2023-03-06T16:33:59.607Z,25.00
2023-03-06T16:36:27.656Z,21.35
2023-03-06T16:38:54.971Z,16.85
2023-03-06T16:41:25.233Z,16.08
2023-03-06T16:43:52.536Z,16.88
2023-03-06T16:46:23.514Z,15.25
2023-03-06T16:48:51.649Z,15.50
2023-03-06T16:51:24.257Z,15.93
2023-03-06T16:53:51.483Z,16.77
2023-03-06T16:56:20.524Z,16.05
2023-03-06T16:58:52.636Z,16.23
2023-03-06T17:01:22.727Z,16.98
2023-03-06T17:03:50.004Z,16.48
2023-03-06T17:06:19.916Z,16.27
2023-03-06T17:08:48.443Z,18.73
2023-03-06T17:11:16.486Z,18.52
2023-03-06T17:13:44.774Z,17.08
2023-03-06T17:16:16.680Z,16.15
2023-03-06T17:18:45.486Z,15.65
2023-03-06T17:21:17.713Z,16.42
2023-03-06T17:23:45.227Z,17.58
2023-03-06T17:26:20.762Z,16.88
2023-03-06T17:28:49.908Z,17.15
2023-03-06T17:31:24.193Z,17.35
2023-03-06T17:33:52.882Z,17.92
2023-03-06T17:36:20.234Z,17.92
2023-03-06T17:38:54.428Z,16.63
2023-03-06T17:41:25.819Z,17.83
2023-03-06T17:43:59.578Z,16.40
2023-03-06T17:46:26.841Z,17.15
2023-03-06T17:48:58.336Z,18.38
2023-03-06T17:51:25.740Z,17.90
2023-03-06T17:54:07.534Z,18.20
2023-03-06T17:56:37.146Z,18.65
2023-03-06T17:59:05.900Z,19.30
2023-03-06T18:01:33.342Z,24.27
2023-03-06T18:04:02.421Z,23.63
2023-03-06T18:06:34.270Z,27.52
2023-03-06T18:09:11.049Z,109.20
2023-03-06T18:11:38.487Z,29.65
2023-03-06T18:14:05.713Z,24.48
2023-03-06T18:16:33.483Z,21.60
2023-03-06T18:19:00.708Z,20.08
2023-03-06T18:21:28.643Z,23.33
2023-03-06T18:24:10.388Z,27.00
2023-03-06T18:26:49.865Z,26.35
2023-03-06T18:29:17.239Z,27.05
2023-03-06T18:31:44.955Z,28.33
2023-03-06T18:34:18.082Z,30.52
2023-03-06T18:36:52.046Z,32.28
2023-03-06T18:39:24.460Z,30.70
2023-03-06T18:41:54.766Z,31.75
2023-03-06T18:44:33.965Z,30.13
2023-03-06T18:47:04.882Z,28.30
2023-03-06T18:49:43.811Z,30.75
2023-03-06T18:52:12.554Z,33.40
2023-03-06T18:54:42.094Z,32.95
2023-03-06T18:57:19.793Z,33.22
2023-03-06T18:59:55.034Z,37.85
2023-03-06T19:02:25.023Z,35.42
2023-03-06T19:04:53.077Z,35.40
2023-03-06T19:07:20.744Z,33.45
2023-03-06T19:09:51.354Z,35.58
2023-03-06T19:14:46.187Z,36.00
2023-03-06T19:17:13.609Z,41.45
2023-03-06T19:19:40.936Z,45.67
2023-03-06T19:22:08.358Z,45.47
2023-03-06T19:24:35.710Z,42.53
2023-03-06T19:27:03.057Z,42.03
2023-03-06T19:29:32.686Z,41.35
2023-03-06T19:32:00.327Z,38.17
2023-03-06T19:34:28.868Z,36.70
2023-03-06T19:36:59.137Z,39.42
2023-03-06T19:39:28.368Z,37.53
2023-03-06T19:41:55.719Z,38.15
2023-03-06T19:44:25.303Z,38.80
2023-03-06T19:46:52.725Z,38.00
2023-03-06T19:49:22.279Z,37.75
2023-03-06T19:51:49.724Z,39.90
2023-03-06T19:54:17.069Z,38.72
2023-03-06T19:56:45.006Z,36.55
2023-03-06T19:59:12.197Z,35.65
2023-03-06T20:01:39.940Z,36.40
2023-03-06T20:04:07.461Z,35.28
2023-03-06T20:06:36.803Z,35.22
2023-03-06T20:09:07.857Z,35.72
2023-03-06T20:11:35.401Z,36.55
2023-03-06T20:14:06.875Z,34.15
2023-03-06T20:16:34.742Z,38.65
2023-03-06T20:19:03.148Z,40.75
2023-03-06T20:21:33.024Z,60.80
2023-03-06T20:24:00.530Z,51.17
2023-03-06T20:26:29.446Z,50.67
2023-03-06T20:28:59.412Z,189.73
2023-03-06T20:31:33.524Z,61.90
2023-03-06T20:34:06.891Z,43.28
2023-03-06T20:36:42.610Z,42.85
2023-03-06T20:39:13.497Z,40.88
2023-03-06T20:41:41.077Z,39.45
2023-03-06T20:44:13.400Z,39.13
2023-03-06T20:46:43.434Z,38.00
2023-03-06T20:49:15.641Z,38.35
2023-03-06T20:51:42.929Z,36.90
2023-03-06T20:54:15.674Z,41.17
2023-03-06T20:56:50.786Z,42.45
2023-03-06T20:59:20.647Z,44.53
2023-03-06T21:01:48.152Z,41.60
2023-03-06T21:04:18.196Z,67.28
2023-03-06T21:06:47.198Z,41.17
2023-03-06T21:09:18.762Z,40.55
2023-03-06T21:11:46.676Z,42.28
2023-03-06T21:14:14.628Z,40.78
2023-03-06T21:16:42.359Z,38.30
2023-03-06T21:19:12.203Z,39.78
2023-03-06T21:21:41.632Z,38.00
2023-03-06T21:24:11.771Z,38.15
2023-03-06T21:26:39.205Z,38.42
2023-03-06T21:29:06.868Z,38.05
2023-03-06T21:31:40.461Z,111.85
2023-03-06T21:34:08.118Z,66.15
2023-03-06T21:36:35.314Z,48.40
2023-03-06T21:39:08.825Z,39.70
2023-03-06T21:41:40.654Z,36.88
2023-03-06T21:44:08.329Z,39.20
2023-03-06T21:46:35.712Z,43.03
2023-03-06T21:49:05.022Z,39.30
2023-03-06T21:51:32.473Z,36.72
2023-03-06T21:53:59.743Z,37.58
2023-03-06T21:56:29.697Z,33.15
2023-03-06T21:58:58.362Z,29.67
2023-03-06T22:01:28.584Z,32.15
2023-03-06T22:03:56.191Z,32.28
2023-03-06T22:06:26.235Z,28.77
2023-03-06T22:08:58.965Z,34.17
2023-03-06T22:11:31.467Z,35.42
2023-03-06T22:13:58.966Z,38.22
2023-03-06T22:16:26.419Z,30.73
2023-03-06T22:18:53.652Z,35.30
2023-03-06T22:21:22.812Z,37.60
2023-03-06T22:23:57.389Z,29.02
2023-03-06T22:26:25.056Z,29.65
2023-03-06T22:28:52.539Z,31.35
2023-03-06T22:31:25.621Z,34.58
2023-03-06T22:33:54.658Z,35.22
2023-03-06T22:36:22.890Z,35.42
2023-03-06T22:38:54.395Z,32.83
2023-03-06T22:41:21.826Z,31.13
2023-03-06T22:43:49.069Z,34.50
2023-03-06T22:46:18.202Z,34.75
2023-03-06T22:48:45.958Z,33.72
2023-03-06T22:51:16.188Z,36.33
2023-03-06T22:53:43.909Z,34.50
2023-03-06T22:56:13.372Z,34.15
2023-03-06T22:58:41.229Z,35.00
2023-03-06T23:01:10.856Z,41.30
2023-03-06T23:03:44.658Z,42.45
2023-03-06T23:06:22.620Z,43.35
2023-03-06T23:08:58.224Z,41.65
2023-03-06T23:11:30.131Z,43.20
2023-03-06T23:13:58.235Z,42.00
2023-03-06T23:16:27.094Z,42.08
2023-03-06T23:18:54.587Z,39.08
2023-03-06T23:21:23.081Z,40.33
2023-03-06T23:23:52.574Z,38.50
2023-03-06T23:26:22.301Z,39.10
2023-03-06T23:28:49.837Z,37.77
2023-03-06T23:31:20.517Z,36.90
2023-03-06T23:33:48.181Z,36.08
2023-03-06T23:36:17.492Z,33.97
2023-03-06T23:38:45.221Z,35.50
2023-03-06T23:41:18.142Z,40.00
2023-03-06T23:43:46.567Z,39.33
2023-03-06T23:46:14.500Z,40.65
2023-03-06T23:48:43.825Z,41.63
2023-03-06T23:51:20.058Z,42.38
2023-03-06T23:53:58.763Z,42.38
2023-03-06T23:56:28.437Z,47.53
2023-03-06T23:58:55.910Z,43.60
